Aérodrome :
LOGIN :

S'inscrire | Disclaimer

   EN    FR    IT 

 










Légende :    VFR   VFR Marginal   IFR   IFR Intensif   IFR Très Intensif
Visi : 
Plafond : 
>= 8 km
>= 3000ft
5 à 8 km
1000 à 3000 ft
1500m à 5 km
500 à 1000 ft
800 à 1500m
200 à 500 ft
< 800m
< 200 ft
Symboles :   Orages  Brouillard  Fortes neiges  Fortes précipitations  Vent > 20 kt
SIGMETs :   Divers  Orages  Givrage  Turbulence  Onde Orograph.  Cendres Volcan.






- Altitude de l'aérodrome : 294 ft
- Code IATA : NAP


LIRN - Naples Capodichino

DERNIER METAR :
  • 200650Z VRB03KT CAVOK 20/04 Q1028 NOSIG

METARs EXPIRÉS :
  • 200620Z VRB04KT CAVOK 19/03 Q1028 NOSIG
  • 200550Z 06003KT CAVOK 18/03 Q1028 NOSIG
  • 200520Z 07003KT CAVOK 17/03 Q1028 NOSIG
  • 200450Z 07003KT CAVOK 16/04 Q1027 NOSIG
  • 200420Z 06003KT CAVOK 15/02 Q1027 NOSIG

TAF TAF LIRN
Valide du 20 à 06h jusqu'au 21 à 06h UTC


200500Z 2006/2106 VRB05KT CAVOK
BECMG 2008/2010 21010KT
BECMG 2016/2018 VRB05KT



MET'MAP, la Météo Aéronautique d'un coup d'oeil ! - Copyright ORBIFLY Décembre 2007 - Disclaimer

ORBIFLY MET'MAP TEAM :

Programmation & Développement : Alexandra Zaïnal
Sur une idée originale de : Baudouin d'Aumeries
Soutien technique & logistique : Manuel Goepfert
Assistance : Marc-Olivier Méhu

Contact : metmap@orbifly.com




SOURCES & CREDITS :

   NOAA